City of Colorado Springs Municipal Airport
KCOS : now visible

Airfield :











YOU CAN JOIN US ON...

 
LOGIN :

Register | Disclaimer

   EN    FR    IT 

 









Legend :    VFR   Marginal VFR   IFR   Intensive IFR   Very Intensive IFR
Visi :
Ceiling :
>= 8 km
>= 3000ft
5 to 8 km
1000 to 3000 ft
1500m to 5 km
500 to 1000 ft
800 to 1500m
200 to 500 ft
< 800m
< 200 ft
Symbols :   Thunderstorms  Fog  Heavy snow  Heavy precipitations  Wind > 20 kt







- Airport Elevation : 6187 ft
- IATA code : COS


KCOS - City of Colorado Springs Municipal

CURRENT METAR :
  • 261454Z 12004KT 10SM OVC011 14/09 A3008 RMK AO2 SLP123 T01390094 51012

EXPIRED METARs :
  • 261354Z 16005KT 9SM OVC010 13/09 A3007 RMK AO2 SLP121 T01280094
  • 261254Z 14005KT 9SM OVC010 13/09 A3006 RMK AO2 SLP108 T01280094
  • 261218Z 00000KT 9SM OVC010 13/09 A3004 RMK AO2 T01280094

TAF KCOS
Valid from the 26 at 12:00 until the 27 at 12:00 UTC


261208Z 2612/2712 13007KT P6SM SCT005 OVC010
TEMPO 2612/2614 3SM BR BKN005
FM261500 16008KT P6SM SCT012 SCT120
FM261800 16015G25KT P6SM VCTS SCT100CB SCT200
FM262100 16020G30KT P6SM BKN120
FM270300 25015G25KT P6SM BKN120
FM270500 01010KT P6SM SCT250
KZDV FIR / North America



MET'MAP, your aeronautical weather chart ! - Copyright ORBIFLY December 2007 - Disclaimer

ORBIFLY MET'MAP TEAM :

Programming & Development : Alexandra Zaïnal
Concept & Development : Baudouin d'Aumeries
Co-Development & Prog : Marc-Olivier Méhu
Technical & hardware support : Manuel Goepfert

Contact : metmap@orbifly.com




SOURCES & CREDITS :

   NOAA       Earth
Advisory